createdAt,value
2018-11-14T00:00:28.173Z,1022.43
2018-11-14T00:01:28.204Z,1022.42
2018-11-14T00:02:28.233Z,1022.44
2018-11-14T00:03:28.265Z,1022.46
2018-11-14T00:04:28.300Z,1022.51
2018-11-14T00:05:28.335Z,1022.52
2018-11-14T00:06:28.360Z,1022.51
2018-11-14T00:07:28.390Z,1022.52
2018-11-14T00:08:28.433Z,1022.57
2018-11-14T00:09:28.463Z,1022.56
2018-11-14T00:10:28.484Z,1022.62
2018-11-14T00:11:28.517Z,1022.58
2018-11-14T00:12:28.553Z,1022.57
2018-11-14T00:13:28.580Z,1022.59
2018-11-14T00:14:28.620Z,1022.61
2018-11-14T00:15:28.646Z,1022.57
2018-11-14T00:16:28.690Z,1022.58
2018-11-14T00:17:28.704Z,1022.56
2018-11-14T00:18:28.734Z,1022.59
2018-11-14T00:19:28.773Z,1022.55
2018-11-14T00:20:28.800Z,1022.52
2018-11-14T00:21:28.828Z,1022.56
2018-11-14T00:22:28.862Z,1022.53
2018-11-14T00:23:28.892Z,1022.48
2018-11-14T00:24:28.952Z,1022.56
2018-11-14T00:25:28.954Z,1022.49
2018-11-14T00:26:28.986Z,1022.49
2018-11-14T00:27:29.018Z,1022.54
2018-11-14T00:28:29.050Z,1022.56
2018-11-14T00:29:29.340Z,1022.56
2018-11-14T00:30:29.110Z,1022.60
2018-11-14T00:31:29.143Z,1022.55
2018-11-14T00:32:29.174Z,1022.59
2018-11-14T00:33:29.208Z,1022.58
2018-11-14T00:34:29.287Z,1022.63
2018-11-14T00:35:29.303Z,1022.61
2018-11-14T00:36:29.301Z,1022.60
2018-11-14T00:37:29.332Z,1022.64
2018-11-14T00:38:29.364Z,1022.60
2018-11-14T00:39:29.398Z,1022.65
2018-11-14T00:40:29.427Z,1022.64
2018-11-14T00:41:29.458Z,1022.68
2018-11-14T00:42:29.488Z,1022.68
2018-11-14T00:43:29.521Z,1022.68
2018-11-14T00:44:29.553Z,1022.69
2018-11-14T00:45:29.584Z,1022.72
2018-11-14T00:46:29.615Z,1022.76
2018-11-14T00:47:30.248Z,1022.73
2018-11-14T00:48:29.678Z,1022.74
2018-11-14T00:49:29.711Z,1022.70
2018-11-14T00:50:29.741Z,1022.75
2018-11-14T00:51:29.772Z,1022.78
2018-11-14T00:52:29.804Z,1022.80
2018-11-14T00:53:29.837Z,1022.82
2018-11-14T00:54:29.865Z,1022.77
2018-11-14T00:55:29.900Z,1022.78
2018-11-14T00:56:29.937Z,1022.83
2018-11-14T00:57:29.963Z,1022.81
2018-11-14T00:58:29.992Z,1022.79
2018-11-14T00:59:30.025Z,1022.79
2018-11-14T01:00:30.057Z,1022.80
2018-11-14T01:01:30.143Z,1022.79
2018-11-14T01:02:30.121Z,1022.88
2018-11-14T01:03:30.150Z,1022.83
2018-11-14T01:04:30.183Z,1022.87
2018-11-14T01:05:30.215Z,1022.85
2018-11-14T01:06:30.245Z,1022.85
2018-11-14T01:07:30.278Z,1022.82
2018-11-14T01:08:30.308Z,1022.86
2018-11-14T01:09:30.639Z,1022.85
2018-11-14T01:10:30.371Z,1022.82
2018-11-14T01:11:30.406Z,1022.81
2018-11-14T01:12:30.494Z,1022.87
2018-11-14T01:13:30.466Z,1022.87
2018-11-14T01:14:30.497Z,1022.93
2018-11-14T01:15:30.535Z,1022.90
2018-11-14T01:16:30.560Z,1022.91
2018-11-14T01:17:30.592Z,1022.96
2018-11-14T01:18:30.629Z,1022.90
2018-11-14T01:19:30.652Z,1022.93
2018-11-14T01:20:30.685Z,1022.99
2018-11-14T01:21:30.773Z,1022.98
2018-11-14T01:22:30.754Z,1022.92
2018-11-14T01:23:30.779Z,1022.93
2018-11-14T01:24:30.814Z,1022.92
2018-11-14T01:25:30.845Z,1022.92
2018-11-14T01:26:30.875Z,1022.96
2018-11-14T01:27:30.906Z,1022.95
2018-11-14T01:28:30.939Z,1022.92
2018-11-14T01:29:30.971Z,1022.95
2018-11-14T01:30:31.000Z,1022.93
2018-11-14T01:31:31.031Z,1022.92
2018-11-14T01:32:31.064Z,1022.92
2018-11-14T01:33:31.097Z,1022.90
2018-11-14T01:34:31.131Z,1022.93
2018-11-14T01:35:31.158Z,1022.93
2018-11-14T01:36:31.190Z,1022.92
2018-11-14T01:37:31.223Z,1022.98
2018-11-14T01:38:31.253Z,1022.98
2018-11-14T01:39:31.285Z,1022.95
2018-11-14T01:40:31.317Z,1022.97
2018-11-14T01:41:31.349Z,1022.96
2018-11-14T01:42:31.379Z,1022.98
2018-11-14T01:43:31.409Z,1022.99
2018-11-14T01:44:31.442Z,1022.99
2018-11-14T01:45:31.475Z,1022.99
2018-11-14T01:46:31.504Z,1023.05
2018-11-14T01:47:31.536Z,1022.99
2018-11-14T01:48:31.576Z,1023.07
2018-11-14T01:49:31.601Z,1023.06
2018-11-14T01:50:31.632Z,1023.07
2018-11-14T01:51:31.662Z,1023.05
2018-11-14T01:52:31.693Z,1023.03
2018-11-14T01:53:31.726Z,1023.04
2018-11-14T01:54:31.756Z,1023.05
2018-11-14T01:55:31.788Z,1022.99
2018-11-14T01:56:31.818Z,1023.00
2018-11-14T01:57:31.851Z,1023.03
2018-11-14T01:58:31.884Z,1022.98
2018-11-14T01:59:31.914Z,1023.03
2018-11-14T02:00:31.946Z,1022.97
2018-11-14T02:01:31.977Z,1023.01
2018-11-14T02:02:32.008Z,1023.02
2018-11-14T02:03:32.039Z,1023.06
2018-11-14T02:04:32.069Z,1023.02
2018-11-14T02:05:32.102Z,1023.06
2018-11-14T02:06:32.132Z,1023.05
2018-11-14T02:07:32.164Z,1023.05
2018-11-14T02:08:32.195Z,1022.99
2018-11-14T02:09:32.227Z,1023.00
2018-11-14T02:10:32.258Z,1023.06
2018-11-14T02:11:32.289Z,1023.02
2018-11-14T02:12:32.319Z,1023.06
2018-11-14T02:13:32.351Z,1023.04
2018-11-14T02:14:32.382Z,1023.09
2018-11-14T02:15:32.414Z,1023.09
2018-11-14T02:16:32.449Z,1023.06
2018-11-14T02:17:32.477Z,1023.10
2018-11-14T02:18:32.509Z,1023.14
2018-11-14T02:19:32.540Z,1023.05
2018-11-14T02:20:32.571Z,1023.12
2018-11-14T02:21:32.603Z,1023.14
2018-11-14T02:22:32.633Z,1023.13
2018-11-14T02:23:32.668Z,1023.07
2018-11-14T02:24:32.695Z,1023.12
2018-11-14T02:25:32.726Z,1023.15
2018-11-14T02:26:32.757Z,1023.16
2018-11-14T02:27:32.789Z,1023.16
2018-11-14T02:28:32.820Z,1023.13
2018-11-14T02:29:32.852Z,1023.12
2018-11-14T02:30:32.883Z,1023.15
2018-11-14T02:31:32.914Z,1023.17
2018-11-14T02:32:32.947Z,1023.16
2018-11-14T02:33:32.982Z,1023.13
2018-11-14T02:34:33.008Z,1023.18
2018-11-14T02:35:33.040Z,1023.18
2018-11-14T02:36:33.071Z,1023.16
2018-11-14T02:37:40.268Z,1023.16
2018-11-14T02:39:37.166Z,1023.16
2018-11-14T02:42:01.165Z,1023.10
2018-11-14T02:43:01.190Z,1023.13
2018-11-14T02:45:05.218Z,1023.11
2018-11-14T02:46:05.242Z,1023.13
2018-11-14T02:47:58.193Z,1023.17
2018-11-14T02:48:58.222Z,1023.08
2018-11-14T02:51:02.731Z,1023.09
2018-11-14T02:52:02.280Z,1023.07
2018-11-14T02:54:06.412Z,1023.08
2018-11-14T02:55:06.477Z,1023.06
2018-11-14T02:57:11.000Z,1023.11
2018-11-14T02:58:11.029Z,1023.09
2018-11-14T03:00:04.355Z,1023.15
2018-11-14T03:01:04.374Z,1023.14
2018-11-14T03:03:08.400Z,1023.13
2018-11-14T03:04:08.428Z,1023.13
2018-11-14T03:06:12.458Z,1023.20
2018-11-14T03:07:12.478Z,1023.17
2018-11-14T03:09:17.214Z,1023.24
2018-11-14T03:10:17.024Z,1023.23
2018-11-14T03:11:17.056Z,1023.27
2018-11-14T03:12:17.167Z,1023.29
2018-11-14T03:13:17.129Z,1023.30
2018-11-14T03:14:17.151Z,1023.30
2018-11-14T03:15:17.184Z,1023.27
2018-11-14T03:16:17.213Z,1023.28
2018-11-14T03:17:17.276Z,1023.31
2018-11-14T03:18:17.274Z,1023.30
2018-11-14T03:19:17.303Z,1023.38
2018-11-14T03:20:17.334Z,1023.36
2018-11-14T03:21:17.368Z,1023.34
2018-11-14T03:22:17.448Z,1023.31
2018-11-14T03:23:17.428Z,1023.33
2018-11-14T03:24:17.458Z,1023.30
2018-11-14T03:25:17.491Z,1023.34
2018-11-14T03:26:17.524Z,1023.37
2018-11-14T03:27:17.552Z,1023.37
2018-11-14T03:28:17.583Z,1023.36
2018-11-14T03:29:17.613Z,1023.38
2018-11-14T03:30:17.651Z,1023.35
2018-11-14T03:31:17.677Z,1023.36
2018-11-14T03:32:17.708Z,1023.37
2018-11-14T03:33:17.739Z,1023.33
2018-11-14T03:34:17.770Z,1023.41
2018-11-14T03:35:17.803Z,1023.44
2018-11-14T03:36:17.831Z,1023.43
2018-11-14T03:37:17.866Z,1023.48
2018-11-14T03:38:17.898Z,1023.49
2018-11-14T03:39:17.925Z,1023.47
2018-11-14T03:40:17.954Z,1023.50
2018-11-14T03:41:17.986Z,1023.45
2018-11-14T03:42:18.017Z,1023.45
2018-11-14T03:43:18.047Z,1023.48
2018-11-14T03:44:18.081Z,1023.50
2018-11-14T03:45:18.111Z,1023.50
2018-11-14T03:46:18.143Z,1023.51
2018-11-14T03:47:18.174Z,1023.47
2018-11-14T03:48:18.202Z,1023.46
2018-11-14T03:49:18.235Z,1023.45
2018-11-14T03:50:18.264Z,1023.46
2018-11-14T03:51:18.296Z,1023.50
2018-11-14T03:52:18.325Z,1023.49
2018-11-14T03:53:18.358Z,1023.43
2018-11-14T03:54:18.390Z,1023.49
2018-11-14T03:55:18.421Z,1023.45
2018-11-14T03:56:18.451Z,1023.51
2018-11-14T03:57:18.482Z,1023.47
2018-11-14T03:58:18.568Z,1023.51
2018-11-14T03:59:18.550Z,1023.48
2018-11-14T04:00:18.574Z,1023.48
2018-11-14T04:01:18.609Z,1023.47
2018-11-14T04:02:18.636Z,1023.46
2018-11-14T04:03:18.667Z,1023.47
2018-11-14T04:04:18.699Z,1023.42
2018-11-14T04:05:18.747Z,1023.42
2018-11-14T04:06:18.760Z,1023.45
2018-11-14T04:07:18.795Z,1023.41
2018-11-14T04:08:18.825Z,1023.43
2018-11-14T04:09:18.917Z,1023.34
2018-11-14T04:10:18.885Z,1023.36
2018-11-14T04:11:18.915Z,1023.30
2018-11-14T04:12:18.950Z,1023.31
2018-11-14T04:13:18.977Z,1023.30
2018-11-14T04:14:19.007Z,1023.33
2018-11-14T04:15:19.038Z,1023.32
2018-11-14T04:16:19.071Z,1023.30
2018-11-14T04:17:19.114Z,1023.31
2018-11-14T04:18:19.131Z,1023.34
2018-11-14T04:19:19.160Z,1023.32
2018-11-14T04:20:19.192Z,1023.27
2018-11-14T04:21:19.224Z,1023.24
2018-11-14T04:22:19.254Z,1023.25
2018-11-14T04:23:19.283Z,1023.25
2018-11-14T04:24:19.314Z,1023.23
2018-11-14T04:25:19.346Z,1023.22
2018-11-14T04:26:19.377Z,1023.22
2018-11-14T04:27:19.408Z,1023.24
2018-11-14T04:28:19.438Z,1023.29
2018-11-14T04:29:19.473Z,1023.24
2018-11-14T04:30:19.502Z,1023.30
2018-11-14T04:31:19.533Z,1023.28
2018-11-14T04:32:19.566Z,1023.26
2018-11-14T04:33:19.593Z,1023.27
2018-11-14T04:34:19.626Z,1023.26
2018-11-14T04:35:19.654Z,1023.25
2018-11-14T04:36:19.685Z,1023.26
2018-11-14T04:37:19.718Z,1023.27
2018-11-14T04:38:19.750Z,1023.27
2018-11-14T04:39:19.777Z,1023.32
2018-11-14T04:40:19.806Z,1023.32
2018-11-14T04:41:19.840Z,1023.35
2018-11-14T04:42:19.873Z,1023.29
2018-11-14T04:43:19.901Z,1023.30
2018-11-14T04:44:19.933Z,1023.27
2018-11-14T04:45:19.962Z,1023.30
2018-11-14T04:46:19.994Z,1023.29
2018-11-14T04:47:20.025Z,1023.26
2018-11-14T04:48:20.055Z,1023.26
2018-11-14T04:49:20.087Z,1023.29
2018-11-14T04:50:20.119Z,1023.27
2018-11-14T04:51:20.147Z,1023.25
2018-11-14T04:52:20.182Z,1023.31
2018-11-14T04:53:20.210Z,1023.28
2018-11-14T04:54:20.241Z,1023.24
2018-11-14T04:55:20.269Z,1023.22
2018-11-14T04:56:20.305Z,1023.22
2018-11-14T04:57:20.341Z,1023.22
2018-11-14T04:58:20.363Z,1023.22
2018-11-14T04:59:20.399Z,1023.22
2018-11-14T05:00:20.428Z,1023.21
2018-11-14T05:01:20.456Z,1023.28
2018-11-14T05:02:20.514Z,1023.23
2018-11-14T05:03:20.517Z,1023.25
2018-11-14T05:04:20.547Z,1023.28
2018-11-14T05:05:20.582Z,1023.36
2018-11-14T05:06:20.609Z,1023.34
2018-11-14T05:07:20.641Z,1023.35
2018-11-14T05:08:20.676Z,1023.36
2018-11-14T05:09:20.703Z,1023.33
2018-11-14T05:10:20.789Z,1023.33
2018-11-14T05:11:20.765Z,1023.35
2018-11-14T05:12:20.795Z,1023.34
2018-11-14T05:13:20.825Z,1023.33
2018-11-14T05:14:20.859Z,1023.32
2018-11-14T05:15:20.892Z,1023.32
2018-11-14T05:16:20.919Z,1023.31
2018-11-14T05:17:20.951Z,1023.36
2018-11-14T05:18:20.981Z,1023.39
2018-11-14T05:19:21.044Z,1023.39
2018-11-14T05:20:21.041Z,1023.37
2018-11-14T05:21:21.070Z,1023.39
2018-11-14T05:22:21.102Z,1023.45
2018-11-14T05:23:21.150Z,1023.46
2018-11-14T05:24:21.196Z,1023.47
2018-11-14T05:25:21.198Z,1023.49
2018-11-14T05:26:21.226Z,1023.46
2018-11-14T05:27:21.254Z,1023.46
2018-11-14T05:28:21.286Z,1023.46
2018-11-14T05:29:21.318Z,1023.47
2018-11-14T05:30:21.349Z,1023.47
2018-11-14T05:31:21.379Z,1023.45
2018-11-14T05:32:21.408Z,1023.47
2018-11-14T05:33:21.445Z,1023.48
2018-11-14T05:34:21.470Z,1023.47
2018-11-14T05:35:21.501Z,1023.51
2018-11-14T05:36:21.531Z,1023.51
2018-11-14T05:37:21.561Z,1023.53
2018-11-14T05:38:21.594Z,1023.51
2018-11-14T05:39:21.621Z,1023.54
2018-11-14T05:40:21.855Z,1023.52
2018-11-14T05:41:21.685Z,1023.52
2018-11-14T05:42:21.728Z,1023.57
2018-11-14T05:43:21.745Z,1023.55
2018-11-14T05:44:21.774Z,1023.60
2018-11-14T05:45:21.882Z,1023.56
2018-11-14T05:46:21.842Z,1023.59
2018-11-14T05:47:21.867Z,1023.60
2018-11-14T05:48:21.897Z,1023.55
2018-11-14T05:49:21.926Z,1023.64
2018-11-14T05:50:21.961Z,1023.60
2018-11-14T05:51:21.995Z,1023.61
2018-11-14T05:52:22.019Z,1023.60
2018-11-14T05:53:22.048Z,1023.59
2018-11-14T05:54:22.081Z,1023.63
2018-11-14T05:55:22.111Z,1023.62
2018-11-14T05:56:22.140Z,1023.57
2018-11-14T05:57:22.171Z,1023.58
2018-11-14T05:58:22.202Z,1023.57
2018-11-14T05:59:22.231Z,1023.63
2018-11-14T06:00:22.262Z,1023.61
2018-11-14T06:01:22.292Z,1023.62
2018-11-14T06:02:22.325Z,1023.62
2018-11-14T06:03:22.352Z,1023.62
2018-11-14T06:04:22.384Z,1023.63
2018-11-14T06:05:22.415Z,1023.61
2018-11-14T06:06:22.446Z,1023.66
2018-11-14T06:07:22.540Z,1023.68
2018-11-14T06:08:22.508Z,1023.69
2018-11-14T06:09:22.537Z,1023.67
2018-11-14T06:10:22.572Z,1023.69
2018-11-14T06:11:22.597Z,1023.68
2018-11-14T06:12:22.631Z,1023.70
2018-11-14T06:13:22.660Z,1023.71
2018-11-14T06:14:22.691Z,1023.72
2018-11-14T06:15:22.855Z,1023.73
2018-11-14T06:16:22.749Z,1023.71
2018-11-14T06:17:22.780Z,1023.73
2018-11-14T06:18:22.812Z,1023.69
2018-11-14T06:19:22.841Z,1023.71
2018-11-14T06:20:22.870Z,1023.71
2018-11-14T06:21:22.905Z,1023.69
2018-11-14T06:22:22.948Z,1023.62
2018-11-14T06:23:22.971Z,1023.65
2018-11-14T06:24:22.993Z,1023.66
2018-11-14T06:25:23.025Z,1023.70
2018-11-14T06:26:23.056Z,1023.73
2018-11-14T06:27:23.086Z,1023.79
2018-11-14T06:28:23.115Z,1023.81
2018-11-14T06:29:23.147Z,1023.83
2018-11-14T06:30:23.177Z,1023.85
2018-11-14T06:31:23.208Z,1023.88
2018-11-14T06:32:23.238Z,1023.87
2018-11-14T06:33:23.273Z,1023.89
2018-11-14T06:34:23.302Z,1023.91
2018-11-14T06:35:23.330Z,1023.95
2018-11-14T06:36:23.360Z,1023.93
2018-11-14T06:37:23.393Z,1024.01
2018-11-14T06:38:23.424Z,1023.99
2018-11-14T06:39:23.452Z,1024.04
2018-11-14T06:40:23.489Z,1024.02
2018-11-14T06:41:23.534Z,1024.03
2018-11-14T06:42:23.544Z,1024.05
2018-11-14T06:43:23.573Z,1024.12
2018-11-14T06:44:23.605Z,1024.05
2018-11-14T06:45:23.637Z,1024.07
2018-11-14T06:46:23.666Z,1024.12
2018-11-14T06:47:23.698Z,1024.11
2018-11-14T06:48:23.726Z,1024.15
2018-11-14T06:49:23.755Z,1024.18
2018-11-14T06:50:23.788Z,1024.12
2018-11-14T06:51:23.817Z,1024.10
2018-11-14T06:52:23.849Z,1024.06
2018-11-14T06:53:23.880Z,1024.11
2018-11-14T06:54:23.909Z,1024.10
2018-11-14T06:55:23.940Z,1024.14
2018-11-14T06:56:23.971Z,1024.09
2018-11-14T06:57:24.001Z,1024.12
2018-11-14T06:58:24.031Z,1024.11
2018-11-14T06:59:24.136Z,1024.14
2018-11-14T07:00:24.093Z,1024.12
2018-11-14T07:01:24.124Z,1024.14
2018-11-14T07:02:27.319Z,1024.20
2018-11-14T07:03:24.209Z,1024.20
2018-11-14T07:04:24.217Z,1024.14
2018-11-14T07:05:24.280Z,1024.14
2018-11-14T07:06:24.276Z,1024.19
2018-11-14T07:07:24.307Z,1024.15
2018-11-14T07:08:24.337Z,1024.16
2018-11-14T07:09:24.368Z,1024.19
2018-11-14T07:10:24.397Z,1024.15
2018-11-14T07:11:24.430Z,1024.18
2018-11-14T07:12:24.460Z,1024.14
2018-11-14T07:13:24.511Z,1024.18
2018-11-14T07:14:24.523Z,1024.11
2018-11-14T07:15:24.549Z,1024.15
2018-11-14T07:16:24.582Z,1024.18
2018-11-14T07:17:24.613Z,1024.19
2018-11-14T07:18:24.646Z,1024.18
2018-11-14T07:19:24.674Z,1024.22
2018-11-14T07:20:24.708Z,1024.19
2018-11-14T07:21:24.735Z,1024.21
2018-11-14T07:22:24.769Z,1024.21
2018-11-14T07:23:24.795Z,1024.23
2018-11-14T07:24:24.847Z,1024.19
2018-11-14T07:25:24.862Z,1024.25
2018-11-14T07:26:24.891Z,1024.28
2018-11-14T07:27:24.919Z,1024.25
2018-11-14T07:28:24.950Z,1024.30
2018-11-14T07:29:24.990Z,1024.32
2018-11-14T07:30:25.012Z,1024.29
2018-11-14T07:31:25.046Z,1024.29
2018-11-14T07:32:25.074Z,1024.29
2018-11-14T07:33:25.104Z,1024.33
2018-11-14T07:34:25.135Z,1024.31
2018-11-14T07:35:25.166Z,1024.36
2018-11-14T07:36:25.197Z,1024.38
2018-11-14T07:37:25.227Z,1024.38
2018-11-14T07:38:25.259Z,1024.36
2018-11-14T07:39:25.288Z,1024.35
2018-11-14T07:40:25.317Z,1024.33
2018-11-14T07:41:25.350Z,1024.33
2018-11-14T07:42:25.393Z,1024.34
2018-11-14T07:43:25.467Z,1024.36
2018-11-14T07:44:25.440Z,1024.34
2018-11-14T07:45:25.472Z,1024.43
2018-11-14T07:46:25.502Z,1024.40
2018-11-14T07:47:25.533Z,1024.42
2018-11-14T07:48:25.565Z,1024.41
2018-11-14T07:49:25.595Z,1024.44
2018-11-14T07:50:25.628Z,1024.48
2018-11-14T07:51:25.658Z,1024.47
2018-11-14T07:52:25.690Z,1024.51
2018-11-14T07:53:25.719Z,1024.51
2018-11-14T07:54:25.786Z,1024.49
2018-11-14T07:55:25.778Z,1024.52
2018-11-14T07:56:25.811Z,1024.55
2018-11-14T07:57:25.842Z,1024.53
2018-11-14T07:58:25.877Z,1024.52
2018-11-14T07:59:25.904Z,1024.52
2018-11-14T08:00:25.934Z,1024.48
2018-11-14T08:01:25.966Z,1024.50
2018-11-14T08:02:25.997Z,1024.51
2018-11-14T08:03:26.028Z,1024.50
2018-11-14T08:04:26.058Z,1024.52
2018-11-14T08:05:26.090Z,1024.54
2018-11-14T08:06:26.120Z,1024.58
2018-11-14T08:07:26.151Z,1024.59
2018-11-14T08:08:26.317Z,1024.56
2018-11-14T08:09:26.213Z,1024.58
2018-11-14T08:10:26.246Z,1024.56
2018-11-14T08:11:26.276Z,1024.56
2018-11-14T08:12:26.310Z,1024.56
2018-11-14T08:13:26.339Z,1024.51
2018-11-14T08:14:26.370Z,1024.56
2018-11-14T08:15:26.402Z,1024.59
2018-11-14T08:16:26.431Z,1024.65
2018-11-14T08:17:26.463Z,1024.61
2018-11-14T08:18:26.494Z,1024.62
2018-11-14T08:19:26.528Z,1024.63
2018-11-14T08:20:26.556Z,1024.58
2018-11-14T08:21:26.585Z,1024.57
2018-11-14T08:22:26.620Z,1024.54
2018-11-14T08:23:26.652Z,1024.57
2018-11-14T08:24:26.682Z,1024.61
2018-11-14T08:25:26.712Z,1024.54
2018-11-14T08:26:26.749Z,1024.59
2018-11-14T08:27:26.774Z,1024.64
2018-11-14T08:28:26.805Z,1024.65
2018-11-14T08:29:26.836Z,1024.66
2018-11-14T08:30:26.887Z,1024.67
2018-11-14T08:31:26.898Z,1024.75
2018-11-14T08:32:26.929Z,1024.75
2018-11-14T08:33:26.961Z,1024.72
2018-11-14T08:34:26.994Z,1024.69
2018-11-14T08:35:27.023Z,1024.71
2018-11-14T08:36:27.054Z,1024.74
2018-11-14T08:37:34.244Z,1024.71
2018-11-14T08:39:31.112Z,1024.78
2018-11-14T08:40:31.140Z,1024.79
2018-11-14T08:42:35.178Z,1024.81
2018-11-14T08:43:35.210Z,1024.82
2018-11-14T08:45:39.231Z,1024.88
2018-11-14T08:46:39.260Z,1024.89
2018-11-14T08:48:32.214Z,1024.90
2018-11-14T08:49:32.237Z,1024.93
2018-11-14T08:51:36.266Z,1024.97
2018-11-14T08:52:36.294Z,1025.00
2018-11-14T08:54:40.359Z,1024.97
2018-11-14T08:55:40.349Z,1024.99
2018-11-14T08:57:44.384Z,1025.01
2018-11-14T08:58:44.408Z,1024.97
2018-11-14T09:00:48.438Z,1025.01
2018-11-14T09:01:48.466Z,1025.07
2018-11-14T09:03:52.519Z,1025.04
2018-11-14T09:04:52.519Z,1025.09
2018-11-14T09:06:56.578Z,1025.10
2018-11-14T09:07:56.576Z,1025.12
2018-11-14T09:10:00.609Z,1025.11
2018-11-14T09:11:00.671Z,1025.10
2018-11-14T09:13:04.925Z,1025.06
2018-11-14T09:14:04.707Z,1025.10
2018-11-14T09:16:08.737Z,1025.10
2018-11-14T09:17:08.764Z,1025.14
2018-11-14T09:19:12.793Z,1025.13
2018-11-14T09:20:12.823Z,1025.16
2018-11-14T09:22:16.854Z,1025.15
2018-11-14T09:23:16.882Z,1025.13
2018-11-14T09:25:20.979Z,1025.17
2018-11-14T09:26:20.940Z,1025.19
2018-11-14T09:28:13.894Z,1025.21
2018-11-14T09:29:13.920Z,1025.21
2018-11-14T09:31:17.975Z,1025.18
2018-11-14T09:32:18.006Z,1025.12
2018-11-14T09:34:22.032Z,1025.16
2018-11-14T09:35:22.059Z,1025.08
2018-11-14T09:37:26.193Z,1025.09
2018-11-14T09:38:26.124Z,1025.11
2018-11-14T09:40:30.149Z,1025.17
2018-11-14T09:41:30.203Z,1025.18
2018-11-14T09:43:34.206Z,1025.21
2018-11-14T09:44:34.250Z,1025.24
2018-11-14T09:46:38.275Z,1025.22
2018-11-14T09:47:38.297Z,1025.17
2018-11-14T09:49:42.371Z,1025.15
2018-11-14T09:50:42.361Z,1025.13
2018-11-14T09:52:46.391Z,1025.11
2018-11-14T09:53:46.424Z,1025.17
2018-11-14T09:55:50.459Z,1025.16
2018-11-14T09:56:50.625Z,1025.13
2018-11-14T09:58:43.450Z,1025.19
2018-11-14T09:59:43.480Z,1025.18
2018-11-14T10:01:47.544Z,1025.13
2018-11-14T10:02:47.561Z,1025.16
2018-11-14T10:04:51.583Z,1025.20
2018-11-14T10:05:51.631Z,1025.23
2018-11-14T10:07:55.780Z,1025.30
2018-11-14T10:08:55.728Z,1025.37
2018-11-14T10:10:59.768Z,1025.32
2018-11-14T10:11:59.759Z,1025.30
2018-11-14T10:14:03.916Z,1025.37
2018-11-14T10:15:03.839Z,1025.35
2018-11-14T10:17:07.882Z,1025.34
2018-11-14T10:18:07.915Z,1025.36
2018-11-14T10:20:11.987Z,1025.36
2018-11-14T10:21:12.036Z,1025.43
2018-11-14T10:23:16.036Z,1025.39
2018-11-14T10:24:16.076Z,1025.39
2018-11-14T10:26:20.117Z,1025.45
2018-11-14T10:27:20.152Z,1025.49
2018-11-14T10:29:24.200Z,1025.48
2018-11-14T10:30:24.290Z,1025.44
2018-11-14T10:32:28.343Z,1025.40
2018-11-14T10:33:28.312Z,1025.46
2018-11-14T10:34:28.351Z,1025.47
2018-11-14T10:35:28.391Z,1025.47
2018-11-14T10:36:28.433Z,1025.41
2018-11-14T10:37:28.468Z,1025.45
2018-11-14T10:38:28.508Z,1025.47
2018-11-14T10:39:28.549Z,1025.52
2018-11-14T10:40:28.587Z,1025.41
2018-11-14T10:41:28.626Z,1025.40
2018-11-14T10:42:28.667Z,1025.44
2018-11-14T10:43:28.710Z,1025.47
2018-11-14T10:44:28.746Z,1025.51
2018-11-14T10:45:28.784Z,1025.43
2018-11-14T10:46:28.824Z,1025.50
2018-11-14T10:47:28.864Z,1025.53
2018-11-14T10:48:28.903Z,1025.57
2018-11-14T10:49:28.942Z,1025.62
2018-11-14T10:50:28.979Z,1025.61
2018-11-14T10:51:29.019Z,1025.54
2018-11-14T10:52:29.060Z,1025.51
2018-11-14T10:53:29.098Z,1025.48
2018-11-14T10:54:29.137Z,1025.38
2018-11-14T10:55:29.174Z,1025.54
2018-11-14T10:56:29.215Z,1025.57
2018-11-14T10:57:29.253Z,1025.47
2018-11-14T10:58:29.301Z,1025.45
2018-11-14T10:59:29.329Z,1025.48
2018-11-14T11:00:29.395Z,1025.45
2018-11-14T11:01:29.406Z,1025.40
2018-11-14T11:02:29.443Z,1025.50
2018-11-14T11:03:29.483Z,1025.48
2018-11-14T11:04:29.522Z,1025.41
2018-11-14T11:05:29.559Z,1025.45
2018-11-14T11:06:29.600Z,1025.50
2018-11-14T11:07:29.636Z,1025.55
2018-11-14T11:08:29.686Z,1025.48
2018-11-14T11:09:29.712Z,1025.46
2018-11-14T11:10:29.755Z,1025.52
2018-11-14T11:11:29.787Z,1025.48
2018-11-14T11:12:29.826Z,1025.40
2018-11-14T11:13:29.865Z,1025.46
2018-11-14T11:14:29.902Z,1025.43
2018-11-14T11:15:29.939Z,1025.47
2018-11-14T11:16:29.977Z,1025.47
2018-11-14T11:17:30.015Z,1025.46
2018-11-14T11:18:30.052Z,1025.48
2018-11-14T11:19:30.089Z,1025.47
2018-11-14T11:20:30.126Z,1025.45
2018-11-14T11:21:30.161Z,1025.48
2018-11-14T11:22:30.203Z,1025.44
2018-11-14T11:23:30.263Z,1025.44
2018-11-14T11:24:30.275Z,1025.43
2018-11-14T11:25:30.310Z,1025.45
2018-11-14T11:26:30.348Z,1025.44
2018-11-14T11:27:30.384Z,1025.45
2018-11-14T11:28:30.424Z,1025.50
2018-11-14T11:29:30.458Z,1025.48
2018-11-14T11:30:30.493Z,1025.44
2018-11-14T11:31:30.531Z,1025.41
2018-11-14T11:32:30.566Z,1025.45
2018-11-14T11:33:30.602Z,1025.37
2018-11-14T11:34:30.638Z,1025.38
2018-11-14T11:35:30.675Z,1025.39
2018-11-14T11:36:30.710Z,1025.38
2018-11-14T11:37:30.747Z,1025.38
2018-11-14T11:38:30.782Z,1025.38
2018-11-14T11:39:30.818Z,1025.40
2018-11-14T11:40:30.855Z,1025.39
2018-11-14T11:41:30.890Z,1025.40
2018-11-14T11:42:30.924Z,1025.39
2018-11-14T11:43:30.961Z,1025.43
2018-11-14T11:44:31.015Z,1025.41
2018-11-14T11:45:31.033Z,1025.45
2018-11-14T11:46:31.068Z,1025.41
2018-11-14T11:47:31.104Z,1025.40
2018-11-14T11:48:31.138Z,1025.43
2018-11-14T11:49:31.174Z,1025.44
2018-11-14T11:50:31.211Z,1025.47
2018-11-14T11:51:31.245Z,1025.49
2018-11-14T11:52:31.286Z,1025.49
2018-11-14T11:53:31.315Z,1025.51
2018-11-14T11:54:31.349Z,1025.49
2018-11-14T11:55:31.386Z,1025.49
2018-11-14T11:56:31.421Z,1025.55
2018-11-14T11:57:31.506Z,1025.51
2018-11-14T11:58:31.491Z,1025.55
2018-11-14T11:59:31.535Z,1025.51
2018-11-14T12:00:31.786Z,1025.49
2018-11-14T12:01:31.595Z,1025.43
2018-11-14T12:02:31.649Z,1025.47
2018-11-14T12:03:31.672Z,1025.52
2018-11-14T12:04:31.704Z,1025.48
2018-11-14T12:05:31.738Z,1025.42
2018-11-14T12:06:31.847Z,1025.48
2018-11-14T12:07:31.809Z,1025.44
2018-11-14T12:08:31.845Z,1025.48
2018-11-14T12:09:31.878Z,1025.51
2018-11-14T12:10:31.917Z,1025.49
2018-11-14T12:11:31.951Z,1025.49
2018-11-14T12:12:31.985Z,1025.46
2018-11-14T12:13:32.050Z,1025.43
2018-11-14T12:14:32.055Z,1025.39
2018-11-14T12:15:32.090Z,1025.45
2018-11-14T12:16:32.125Z,1025.45
2018-11-14T12:17:32.178Z,1025.43
2018-11-14T12:18:32.196Z,1025.41
2018-11-14T12:19:32.232Z,1025.46
2018-11-14T12:20:32.300Z,1025.40
2018-11-14T12:21:32.303Z,1025.42
2018-11-14T12:22:32.338Z,1025.37
2018-11-14T12:23:32.390Z,1025.35
2018-11-14T12:24:32.408Z,1025.35
2018-11-14T12:25:32.443Z,1025.29
2018-11-14T12:26:32.479Z,1025.27
2018-11-14T12:27:32.530Z,1025.28
2018-11-14T12:28:32.548Z,1025.24
2018-11-14T12:29:32.586Z,1025.23
2018-11-14T12:30:32.664Z,1025.21
2018-11-14T12:31:32.654Z,1025.19
2018-11-14T12:32:32.692Z,1025.22
2018-11-14T12:33:32.725Z,1025.26
2018-11-14T12:34:32.803Z,1025.23
2018-11-14T12:35:32.832Z,1025.22
2018-11-14T12:36:32.831Z,1025.19
2018-11-14T12:37:32.867Z,1025.21
2018-11-14T12:38:32.921Z,1025.24
2018-11-14T12:39:32.936Z,1025.21
2018-11-14T12:40:32.974Z,1025.20
2018-11-14T12:41:33.005Z,1025.22
2018-11-14T12:42:33.039Z,1025.16
2018-11-14T12:43:33.089Z,1025.15
2018-11-14T12:44:33.109Z,1025.12
2018-11-14T12:45:33.145Z,1025.16
2018-11-14T12:46:33.179Z,1025.16
2018-11-14T12:47:33.216Z,1025.18
2018-11-14T12:48:33.249Z,1025.14
2018-11-14T12:49:33.283Z,1025.14
2018-11-14T12:50:33.319Z,1025.13
2018-11-14T12:51:33.355Z,1025.16
2018-11-14T12:52:33.429Z,1025.17
2018-11-14T12:53:33.420Z,1025.14
2018-11-14T12:54:33.455Z,1025.19
2018-11-14T12:55:33.489Z,1025.23
2018-11-14T12:56:33.528Z,1025.19
2018-11-14T12:57:33.558Z,1025.17